sensor_id;sensor_type;location;lat;lon;timestamp;P1;durP1;ratioP1;P2;durP2;ratioP2
10226;SDS011;15634;48.766;2.272;2024-02-16T00:01:40;5.72;;;3.28;;
10226;SDS011;15634;48.766;2.272;2024-02-16T00:04:06;5.75;;;3.30;;
10226;SDS011;15634;48.766;2.272;2024-02-16T00:06:32;5.90;;;3.30;;
10226;SDS011;15634;48.766;2.272;2024-02-16T00:08:58;9.30;;;3.60;;
10226;SDS011;15634;48.766;2.272;2024-02-16T00:11:24;11.10;;;3.13;;
10226;SDS011;15634;48.766;2.272;2024-02-16T00:13:50;6.50;;;3.10;;
10226;SDS011;15634;48.766;2.272;2024-02-16T00:16:16;8.32;;;3.35;;
10226;SDS011;15634;48.766;2.272;2024-02-16T00:18:42;6.82;;;3.30;;
10226;SDS011;15634;48.766;2.272;2024-02-16T00:21:08;4.22;;;2.83;;
10226;SDS011;15634;48.766;2.272;2024-02-16T00:23:34;5.03;;;3.15;;
10226;SDS011;15634;48.766;2.272;2024-02-16T00:26:00;6.70;;;3.05;;
10226;SDS011;15634;48.766;2.272;2024-02-16T00:28:26;8.05;;;3.20;;
10226;SDS011;15634;48.766;2.272;2024-02-16T00:30:52;7.40;;;3.58;;
10226;SDS011;15634;48.766;2.272;2024-02-16T00:33:17;6.38;;;3.50;;
10226;SDS011;15634;48.766;2.272;2024-02-16T00:35:44;5.88;;;2.85;;
10226;SDS011;15634;48.766;2.272;2024-02-16T00:38:09;4.55;;;2.80;;
10226;SDS011;15634;48.766;2.272;2024-02-16T00:40:35;6.57;;;3.80;;
10226;SDS011;15634;48.766;2.272;2024-02-16T00:43:02;8.35;;;3.30;;
10226;SDS011;15634;48.766;2.272;2024-02-16T00:45:28;4.68;;;3.05;;
10226;SDS011;15634;48.766;2.272;2024-02-16T00:47:54;5.70;;;3.40;;
10226;SDS011;15634;48.766;2.272;2024-02-16T00:50:19;6.30;;;3.25;;
10226;SDS011;15634;48.766;2.272;2024-02-16T00:52:45;4.53;;;3.00;;
10226;SDS011;15634;48.766;2.272;2024-02-16T00:55:10;8.43;;;2.97;;
10226;SDS011;15634;48.766;2.272;2024-02-16T00:57:38;7.32;;;3.30;;
10226;SDS011;15634;48.766;2.272;2024-02-16T01:00:03;4.50;;;3.25;;
10226;SDS011;15634;48.766;2.272;2024-02-16T01:02:29;4.53;;;3.00;;
10226;SDS011;15634;48.766;2.272;2024-02-16T01:04:56;6.30;;;3.13;;
10226;SDS011;15634;48.766;2.272;2024-02-16T01:07:27;6.35;;;3.25;;
10226;SDS011;15634;48.766;2.272;2024-02-16T01:09:53;7.88;;;3.10;;
10226;SDS011;15634;48.766;2.272;2024-02-16T01:12:19;6.55;;;3.35;;
10226;SDS011;15634;48.766;2.272;2024-02-16T01:14:44;6.55;;;3.22;;
10226;SDS011;15634;48.766;2.272;2024-02-16T01:17:10;4.60;;;3.17;;
10226;SDS011;15634;48.766;2.272;2024-02-16T01:19:35;7.45;;;3.30;;
10226;SDS011;15634;48.766;2.272;2024-02-16T01:22:01;6.00;;;3.38;;
10226;SDS011;15634;48.766;2.272;2024-02-16T01:24:27;5.75;;;3.13;;
10226;SDS011;15634;48.766;2.272;2024-02-16T01:26:52;5.60;;;3.08;;
10226;SDS011;15634;48.766;2.272;2024-02-16T01:29:18;4.63;;;3.20;;
10226;SDS011;15634;48.766;2.272;2024-02-16T01:31:43;6.60;;;3.13;;
10226;SDS011;15634;48.766;2.272;2024-02-16T01:34:09;4.60;;;3.10;;
10226;SDS011;15634;48.766;2.272;2024-02-16T01:36:35;5.97;;;3.95;;
10226;SDS011;15634;48.766;2.272;2024-02-16T01:39:00;5.40;;;3.15;;
10226;SDS011;15634;48.766;2.272;2024-02-16T01:41:26;8.13;;;3.22;;
10226;SDS011;15634;48.766;2.272;2024-02-16T01:43:52;5.32;;;3.42;;
10226;SDS011;15634;48.766;2.272;2024-02-16T01:46:19;8.38;;;3.38;;
10226;SDS011;15634;48.766;2.272;2024-02-16T01:48:45;5.32;;;3.20;;
10226;SDS011;15634;48.766;2.272;2024-02-16T01:51:11;4.93;;;3.20;;
10226;SDS011;15634;48.766;2.272;2024-02-16T01:53:38;7.70;;;3.35;;
10226;SDS011;15634;48.766;2.272;2024-02-16T01:56:04;5.35;;;3.35;;
10226;SDS011;15634;48.766;2.272;2024-02-16T01:58:30;5.43;;;3.55;;
10226;SDS011;15634;48.766;2.272;2024-02-16T02:00:56;7.18;;;3.35;;
10226;SDS011;15634;48.766;2.272;2024-02-16T02:03:22;6.97;;;3.42;;
10226;SDS011;15634;48.766;2.272;2024-02-16T02:05:48;8.02;;;3.72;;
10226;SDS011;15634;48.766;2.272;2024-02-16T02:08:15;7.32;;;3.20;;
10226;SDS011;15634;48.766;2.272;2024-02-16T02:10:40;7.32;;;3.55;;
10226;SDS011;15634;48.766;2.272;2024-02-16T02:13:07;6.90;;;3.38;;
10226;SDS011;15634;48.766;2.272;2024-02-16T02:15:32;6.95;;;3.83;;
10226;SDS011;15634;48.766;2.272;2024-02-16T02:17:58;7.20;;;3.83;;
10226;SDS011;15634;48.766;2.272;2024-02-16T02:20:24;6.10;;;3.90;;
10226;SDS011;15634;48.766;2.272;2024-02-16T02:22:50;6.00;;;3.83;;
10226;SDS011;15634;48.766;2.272;2024-02-16T02:25:15;4.65;;;3.40;;
10226;SDS011;15634;48.766;2.272;2024-02-16T02:27:41;7.45;;;3.42;;
10226;SDS011;15634;48.766;2.272;2024-02-16T02:30:07;4.65;;;3.35;;
10226;SDS011;15634;48.766;2.272;2024-02-16T02:32:33;5.28;;;3.38;;
10226;SDS011;15634;48.766;2.272;2024-02-16T02:34:59;6.40;;;3.38;;
10226;SDS011;15634;48.766;2.272;2024-02-16T02:37:25;6.57;;;3.72;;
10226;SDS011;15634;48.766;2.272;2024-02-16T02:39:51;5.43;;;3.50;;
10226;SDS011;15634;48.766;2.272;2024-02-16T02:42:17;5.97;;;3.53;;
10226;SDS011;15634;48.766;2.272;2024-02-16T02:44:42;9.07;;;3.85;;
10226;SDS011;15634;48.766;2.272;2024-02-16T02:47:14;7.70;;;3.50;;
10226;SDS011;15634;48.766;2.272;2024-02-16T02:49:41;7.05;;;3.67;;
10226;SDS011;15634;48.766;2.272;2024-02-16T02:52:07;5.80;;;3.80;;
10226;SDS011;15634;48.766;2.272;2024-02-16T02:54:33;9.40;;;3.75;;
10226;SDS011;15634;48.766;2.272;2024-02-16T02:56:58;8.27;;;3.75;;
10226;SDS011;15634;48.766;2.272;2024-02-16T02:59:24;5.95;;;3.83;;
10226;SDS011;15634;48.766;2.272;2024-02-16T03:01:50;6.10;;;3.88;;
10226;SDS011;15634;48.766;2.272;2024-02-16T03:04:15;6.50;;;3.50;;
10226;SDS011;15634;48.766;2.272;2024-02-16T03:06:41;6.95;;;3.72;;
10226;SDS011;15634;48.766;2.272;2024-02-16T03:09:07;5.65;;;3.45;;
10226;SDS011;15634;48.766;2.272;2024-02-16T03:11:32;7.00;;;3.55;;
10226;SDS011;15634;48.766;2.272;2024-02-16T03:13:58;8.50;;;3.88;;
10226;SDS011;15634;48.766;2.272;2024-02-16T03:16:23;7.43;;;3.97;;
10226;SDS011;15634;48.766;2.272;2024-02-16T03:18:49;7.28;;;3.45;;
10226;SDS011;15634;48.766;2.272;2024-02-16T03:21:15;5.65;;;3.72;;
10226;SDS011;15634;48.766;2.272;2024-02-16T03:23:43;9.57;;;3.63;;
10226;SDS011;15634;48.766;2.272;2024-02-16T03:26:16;6.93;;;3.33;;
10226;SDS011;15634;48.766;2.272;2024-02-16T03:28:45;14.18;;;4.45;;
10226;SDS011;15634;48.766;2.272;2024-02-16T03:31:21;5.43;;;3.65;;
10226;SDS011;15634;48.766;2.272;2024-02-16T03:33:48;7.00;;;3.67;;
10226;SDS011;15634;48.766;2.272;2024-02-16T03:36:15;8.35;;;3.95;;
10226;SDS011;15634;48.766;2.272;2024-02-16T03:38:44;7.55;;;3.70;;
10226;SDS011;15634;48.766;2.272;2024-02-16T03:41:14;5.50;;;3.60;;
10226;SDS011;15634;48.766;2.272;2024-02-16T03:43:46;7.53;;;3.63;;
10226;SDS011;15634;48.766;2.272;2024-02-16T03:46:11;6.07;;;3.33;;
10226;SDS011;15634;48.766;2.272;2024-02-16T03:48:38;8.07;;;3.60;;
10226;SDS011;15634;48.766;2.272;2024-02-16T03:51:05;8.88;;;3.85;;
10226;SDS011;15634;48.766;2.272;2024-02-16T03:53:30;6.53;;;3.63;;
10226;SDS011;15634;48.766;2.272;2024-02-16T03:55:56;6.80;;;3.88;;
10226;SDS011;15634;48.766;2.272;2024-02-16T03:58:22;8.40;;;3.83;;
10226;SDS011;15634;48.766;2.272;2024-02-16T04:00:48;7.55;;;3.80;;
10226;SDS011;15634;48.766;2.272;2024-02-16T04:03:14;6.68;;;3.40;;
10226;SDS011;15634;48.766;2.272;2024-02-16T04:05:40;7.60;;;3.78;;
10226;SDS011;15634;48.766;2.272;2024-02-16T04:08:06;8.98;;;3.53;;
10226;SDS011;15634;48.766;2.272;2024-02-16T04:10:32;7.05;;;3.20;;
10226;SDS011;15634;48.766;2.272;2024-02-16T04:12:58;5.30;;;3.40;;
10226;SDS011;15634;48.766;2.272;2024-02-16T04:15:24;9.88;;;3.88;;
10226;SDS011;15634;48.766;2.272;2024-02-16T04:17:49;8.05;;;3.50;;
10226;SDS011;15634;48.766;2.272;2024-02-16T04:20:15;8.00;;;3.30;;
10226;SDS011;15634;48.766;2.272;2024-02-16T04:22:41;6.68;;;3.53;;
10226;SDS011;15634;48.766;2.272;2024-02-16T04:25:08;10.43;;;3.95;;
10226;SDS011;15634;48.766;2.272;2024-02-16T04:27:34;8.45;;;4.00;;
10226;SDS011;15634;48.766;2.272;2024-02-16T04:30:00;6.78;;;3.15;;
10226;SDS011;15634;48.766;2.272;2024-02-16T04:32:26;8.30;;;3.35;;
10226;SDS011;15634;48.766;2.272;2024-02-16T04:34:52;7.45;;;3.70;;
10226;SDS011;15634;48.766;2.272;2024-02-16T04:37:18;6.07;;;3.63;;
10226;SDS011;15634;48.766;2.272;2024-02-16T04:39:44;8.82;;;3.95;;
10226;SDS011;15634;48.766;2.272;2024-02-16T04:42:10;5.82;;;3.40;;
10226;SDS011;15634;48.766;2.272;2024-02-16T04:44:36;9.63;;;3.58;;
10226;SDS011;15634;48.766;2.272;2024-02-16T04:47:05;7.18;;;3.60;;
10226;SDS011;15634;48.766;2.272;2024-02-16T04:49:31;6.88;;;3.63;;
10226;SDS011;15634;48.766;2.272;2024-02-16T04:51:57;8.88;;;3.63;;
10226;SDS011;15634;48.766;2.272;2024-02-16T04:54:23;8.48;;;3.85;;
10226;SDS011;15634;48.766;2.272;2024-02-16T04:56:49;7.15;;;3.70;;
10226;SDS011;15634;48.766;2.272;2024-02-16T04:59:15;8.65;;;3.75;;
10226;SDS011;15634;48.766;2.272;2024-02-16T05:01:44;8.02;;;3.60;;
10226;SDS011;15634;48.766;2.272;2024-02-16T05:04:11;11.20;;;5.80;;
10226;SDS011;15634;48.766;2.272;2024-02-16T05:06:42;7.32;;;3.78;;
10226;SDS011;15634;48.766;2.272;2024-02-16T05:09:10;6.45;;;3.65;;
10226;SDS011;15634;48.766;2.272;2024-02-16T05:11:36;7.95;;;3.85;;
10226;SDS011;15634;48.766;2.272;2024-02-16T05:14:01;7.88;;;4.00;;
10226;SDS011;15634;48.766;2.272;2024-02-16T05:16:27;6.43;;;3.47;;
10226;SDS011;15634;48.766;2.272;2024-02-16T05:18:54;8.52;;;4.20;;
10226;SDS011;15634;48.766;2.272;2024-02-16T05:21:21;8.13;;;3.60;;
10226;SDS011;15634;48.766;2.272;2024-02-16T05:23:47;7.35;;;3.88;;
10226;SDS011;15634;48.766;2.272;2024-02-16T05:26:13;11.48;;;4.43;;
10226;SDS011;15634;48.766;2.272;2024-02-16T05:28:38;9.45;;;4.18;;
10226;SDS011;15634;48.766;2.272;2024-02-16T05:31:12;6.75;;;3.83;;
10226;SDS011;15634;48.766;2.272;2024-02-16T05:33:43;9.27;;;4.07;;
10226;SDS011;15634;48.766;2.272;2024-02-16T05:38:43;8.73;;;3.95;;
10226;SDS011;15634;48.766;2.272;2024-02-16T05:41:09;10.10;;;4.35;;
10226;SDS011;15634;48.766;2.272;2024-02-16T05:43:36;8.18;;;4.10;;
10226;SDS011;15634;48.766;2.272;2024-02-16T05:46:03;9.50;;;4.07;;
10226;SDS011;15634;48.766;2.272;2024-02-16T05:48:32;13.77;;;4.47;;
10226;SDS011;15634;48.766;2.272;2024-02-16T05:51:05;7.82;;;4.00;;
10226;SDS011;15634;48.766;2.272;2024-02-16T05:53:31;7.53;;;4.07;;
10226;SDS011;15634;48.766;2.272;2024-02-16T05:56:01;9.85;;;4.45;;
10226;SDS011;15634;48.766;2.272;2024-02-16T05:58:27;8.93;;;4.15;;
10226;SDS011;15634;48.766;2.272;2024-02-16T06:00:54;5.78;;;3.80;;
10226;SDS011;15634;48.766;2.272;2024-02-16T06:03:19;7.38;;;4.20;;
10226;SDS011;15634;48.766;2.272;2024-02-16T06:05:46;8.30;;;4.13;;
10226;SDS011;15634;48.766;2.272;2024-02-16T06:08:12;9.68;;;3.90;;
10226;SDS011;15634;48.766;2.272;2024-02-16T06:10:38;8.25;;;4.07;;
10226;SDS011;15634;48.766;2.272;2024-02-16T06:13:04;13.35;;;4.40;;
10226;SDS011;15634;48.766;2.272;2024-02-16T06:15:31;11.07;;;4.50;;
10226;SDS011;15634;48.766;2.272;2024-02-16T06:17:58;10.15;;;3.97;;
10226;SDS011;15634;48.766;2.272;2024-02-16T06:20:25;8.60;;;4.68;;
10226;SDS011;15634;48.766;2.272;2024-02-16T06:22:50;7.47;;;4.00;;
10226;SDS011;15634;48.766;2.272;2024-02-16T06:25:16;9.35;;;3.83;;
10226;SDS011;15634;48.766;2.272;2024-02-16T06:27:42;9.45;;;4.38;;
10226;SDS011;15634;48.766;2.272;2024-02-16T06:30:07;8.38;;;4.03;;
10226;SDS011;15634;48.766;2.272;2024-02-16T06:32:37;7.13;;;3.75;;
10226;SDS011;15634;48.766;2.272;2024-02-16T06:35:04;8.15;;;3.95;;
10226;SDS011;15634;48.766;2.272;2024-02-16T06:37:29;9.93;;;4.15;;
10226;SDS011;15634;48.766;2.272;2024-02-16T06:39:57;7.80;;;4.30;;
10226;SDS011;15634;48.766;2.272;2024-02-16T06:42:22;9.77;;;4.35;;
10226;SDS011;15634;48.766;2.272;2024-02-16T06:44:48;9.45;;;4.28;;
10226;SDS011;15634;48.766;2.272;2024-02-16T06:47:14;9.70;;;4.32;;
10226;SDS011;15634;48.766;2.272;2024-02-16T06:49:39;11.25;;;4.40;;
10226;SDS011;15634;48.766;2.272;2024-02-16T06:52:05;9.25;;;4.53;;
10226;SDS011;15634;48.766;2.272;2024-02-16T06:54:31;8.82;;;3.80;;
10226;SDS011;15634;48.766;2.272;2024-02-16T06:56:57;9.52;;;4.10;;
10226;SDS011;15634;48.766;2.272;2024-02-16T06:59:22;10.90;;;3.70;;
10226;SDS011;15634;48.766;2.272;2024-02-16T07:01:48;8.82;;;3.78;;
10226;SDS011;15634;48.766;2.272;2024-02-16T07:04:13;10.60;;;4.20;;
10226;SDS011;15634;48.766;2.272;2024-02-16T07:06:39;7.32;;;3.70;;
10226;SDS011;15634;48.766;2.272;2024-02-16T07:09:06;7.60;;;3.72;;
10226;SDS011;15634;48.766;2.272;2024-02-16T07:11:31;9.93;;;4.18;;
10226;SDS011;15634;48.766;2.272;2024-02-16T07:14:02;11.20;;;3.75;;
10226;SDS011;15634;48.766;2.272;2024-02-16T07:16:29;10.35;;;4.00;;
10226;SDS011;15634;48.766;2.272;2024-02-16T07:18:55;8.48;;;3.75;;
10226;SDS011;15634;48.766;2.272;2024-02-16T07:21:21;11.90;;;3.75;;
10226;SDS011;15634;48.766;2.272;2024-02-16T07:23:48;9.75;;;3.15;;
10226;SDS011;15634;48.766;2.272;2024-02-16T07:26:14;13.30;;;3.65;;
10226;SDS011;15634;48.766;2.272;2024-02-16T07:28:42;8.20;;;3.47;;
10226;SDS011;15634;48.766;2.272;2024-02-16T07:31:08;10.95;;;3.63;;
10226;SDS011;15634;48.766;2.272;2024-02-16T07:33:35;9.75;;;3.42;;
10226;SDS011;15634;48.766;2.272;2024-02-16T07:36:02;11.27;;;3.85;;
10226;SDS011;15634;48.766;2.272;2024-02-16T07:38:28;9.32;;;3.33;;
10226;SDS011;15634;48.766;2.272;2024-02-16T07:40:53;8.15;;;3.63;;
10226;SDS011;15634;48.766;2.272;2024-02-16T07:43:20;8.68;;;3.55;;
10226;SDS011;15634;48.766;2.272;2024-02-16T07:45:50;8.95;;;3.22;;
10226;SDS011;15634;48.766;2.272;2024-02-16T07:48:19;7.10;;;2.95;;
10226;SDS011;15634;48.766;2.272;2024-02-16T07:50:46;8.30;;;3.42;;
10226;SDS011;15634;48.766;2.272;2024-02-16T07:53:12;8.38;;;3.42;;
10226;SDS011;15634;48.766;2.272;2024-02-16T07:55:38;7.05;;;2.83;;
10226;SDS011;15634;48.766;2.272;2024-02-16T07:58:05;9.05;;;2.95;;
10226;SDS011;15634;48.766;2.272;2024-02-16T08:00:31;5.80;;;2.78;;
10226;SDS011;15634;48.766;2.272;2024-02-16T08:02:58;7.63;;;2.70;;
10226;SDS011;15634;48.766;2.272;2024-02-16T08:05:24;7.38;;;2.60;;
10226;SDS011;15634;48.766;2.272;2024-02-16T08:07:51;8.40;;;2.63;;
10226;SDS011;15634;48.766;2.272;2024-02-16T08:10:24;8.95;;;2.78;;
10226;SDS011;15634;48.766;2.272;2024-02-16T08:12:50;6.40;;;2.55;;
10226;SDS011;15634;48.766;2.272;2024-02-16T08:15:16;6.28;;;2.35;;
10226;SDS011;15634;48.766;2.272;2024-02-16T08:17:47;5.28;;;2.33;;
10226;SDS011;15634;48.766;2.272;2024-02-16T08:20:13;6.25;;;2.63;;
10226;SDS011;15634;48.766;2.272;2024-02-16T08:22:40;4.28;;;2.10;;
10226;SDS011;15634;48.766;2.272;2024-02-16T08:25:06;5.05;;;2.13;;
10226;SDS011;15634;48.766;2.272;2024-02-16T08:27:32;5.70;;;2.25;;
10226;SDS011;15634;48.766;2.272;2024-02-16T08:29:58;10.45;;;2.60;;
10226;SDS011;15634;48.766;2.272;2024-02-16T08:32:24;5.82;;;2.20;;
10226;SDS011;15634;48.766;2.272;2024-02-16T08:34:50;7.82;;;1.70;;
10226;SDS011;15634;48.766;2.272;2024-02-16T08:37:16;10.57;;;2.20;;
10226;SDS011;15634;48.766;2.272;2024-02-16T08:39:42;4.47;;;1.75;;
10226;SDS011;15634;48.766;2.272;2024-02-16T08:42:08;4.85;;;1.90;;
10226;SDS011;15634;48.766;2.272;2024-02-16T08:44:36;6.88;;;2.05;;
10226;SDS011;15634;48.766;2.272;2024-02-16T08:47:03;7.22;;;2.17;;
10226;SDS011;15634;48.766;2.272;2024-02-16T08:49:29;6.00;;;2.17;;
10226;SDS011;15634;48.766;2.272;2024-02-16T08:51:56;6.30;;;2.33;;
10226;SDS011;15634;48.766;2.272;2024-02-16T08:54:22;6.78;;;2.30;;
10226;SDS011;15634;48.766;2.272;2024-02-16T08:56:48;5.50;;;2.63;;
10226;SDS011;15634;48.766;2.272;2024-02-16T08:59:14;7.28;;;2.40;;
10226;SDS011;15634;48.766;2.272;2024-02-16T09:01:41;8.20;;;2.10;;
10226;SDS011;15634;48.766;2.272;2024-02-16T09:04:07;9.65;;;2.10;;
10226;SDS011;15634;48.766;2.272;2024-02-16T09:06:33;4.15;;;2.10;;
10226;SDS011;15634;48.766;2.272;2024-02-16T09:08:59;5.43;;;1.80;;
10226;SDS011;15634;48.766;2.272;2024-02-16T09:11:25;7.85;;;1.88;;
10226;SDS011;15634;48.766;2.272;2024-02-16T09:13:51;8.20;;;2.40;;
10226;SDS011;15634;48.766;2.272;2024-02-16T09:16:17;6.68;;;1.67;;
10226;SDS011;15634;48.766;2.272;2024-02-16T09:18:43;7.63;;;2.42;;
10226;SDS011;15634;48.766;2.272;2024-02-16T09:21:09;8.32;;;2.30;;
10226;SDS011;15634;48.766;2.272;2024-02-16T09:23:35;5.93;;;2.33;;
10226;SDS011;15634;48.766;2.272;2024-02-16T09:26:01;4.95;;;2.35;;
10226;SDS011;15634;48.766;2.272;2024-02-16T09:28:28;5.55;;;1.83;;
10226;SDS011;15634;48.766;2.272;2024-02-16T09:30:54;6.97;;;2.30;;
10226;SDS011;15634;48.766;2.272;2024-02-16T09:33:21;5.22;;;1.73;;
10226;SDS011;15634;48.766;2.272;2024-02-16T09:35:48;9.10;;;2.08;;
10226;SDS011;15634;48.766;2.272;2024-02-16T09:38:14;4.72;;;1.83;;
10226;SDS011;15634;48.766;2.272;2024-02-16T09:40:40;7.20;;;2.40;;
10226;SDS011;15634;48.766;2.272;2024-02-16T09:43:09;8.50;;;2.13;;
10226;SDS011;15634;48.766;2.272;2024-02-16T09:45:36;9.57;;;2.10;;
10226;SDS011;15634;48.766;2.272;2024-02-16T09:48:02;6.40;;;2.20;;
10226;SDS011;15634;48.766;2.272;2024-02-16T09:50:32;5.47;;;2.25;;
10226;SDS011;15634;48.766;2.272;2024-02-16T09:53:00;7.88;;;2.30;;
10226;SDS011;15634;48.766;2.272;2024-02-16T09:55:29;7.70;;;2.20;;
10226;SDS011;15634;48.766;2.272;2024-02-16T09:57:59;6.22;;;2.50;;
10226;SDS011;15634;48.766;2.272;2024-02-16T10:00:25;6.32;;;2.42;;
10226;SDS011;15634;48.766;2.272;2024-02-16T10:02:50;6.97;;;2.67;;
10226;SDS011;15634;48.766;2.272;2024-02-16T10:05:17;6.90;;;2.58;;
10226;SDS011;15634;48.766;2.272;2024-02-16T10:07:43;7.20;;;2.38;;
10226;SDS011;15634;48.766;2.272;2024-02-16T10:10:25;5.55;;;2.30;;
10226;SDS011;15634;48.766;2.272;2024-02-16T10:13:02;8.70;;;2.65;;
10226;SDS011;15634;48.766;2.272;2024-02-16T10:15:29;6.97;;;2.53;;
10226;SDS011;15634;48.766;2.272;2024-02-16T10:17:59;6.88;;;2.50;;
10226;SDS011;15634;48.766;2.272;2024-02-16T10:20:25;6.68;;;2.65;;
10226;SDS011;15634;48.766;2.272;2024-02-16T10:23:07;8.95;;;2.67;;
10226;SDS011;15634;48.766;2.272;2024-02-16T10:25:34;7.55;;;3.08;;
10226;SDS011;15634;48.766;2.272;2024-02-16T10:28:02;10.43;;;4.15;;
10226;SDS011;15634;48.766;2.272;2024-02-16T10:30:31;7.53;;;3.60;;
10226;SDS011;15634;48.766;2.272;2024-02-16T10:33:00;8.27;;;4.18;;
10226;SDS011;15634;48.766;2.272;2024-02-16T10:35:27;6.35;;;4.45;;
10226;SDS011;15634;48.766;2.272;2024-02-16T10:37:54;7.28;;;4.57;;
10226;SDS011;15634;48.766;2.272;2024-02-16T10:40:22;6.90;;;4.63;;
10226;SDS011;15634;48.766;2.272;2024-02-16T10:42:49;6.38;;;4.95;;
10226;SDS011;15634;48.766;2.272;2024-02-16T10:45:18;7.22;;;4.90;;
10226;SDS011;15634;48.766;2.272;2024-02-16T10:47:44;8.00;;;5.03;;
10226;SDS011;15634;48.766;2.272;2024-02-16T10:50:10;7.03;;;4.70;;
10226;SDS011;15634;48.766;2.272;2024-02-16T10:52:37;7.78;;;5.28;;
10226;SDS011;15634;48.766;2.272;2024-02-16T10:55:04;7.22;;;5.25;;
10226;SDS011;15634;48.766;2.272;2024-02-16T10:57:31;6.47;;;4.70;;
10226;SDS011;15634;48.766;2.272;2024-02-16T10:59:58;7.35;;;4.90;;
10226;SDS011;15634;48.766;2.272;2024-02-16T11:02:25;6.10;;;4.45;;
10226;SDS011;15634;48.766;2.272;2024-02-16T11:04:52;7.90;;;4.63;;
10226;SDS011;15634;48.766;2.272;2024-02-16T11:07:19;6.88;;;4.72;;
10226;SDS011;15634;48.766;2.272;2024-02-16T11:09:46;7.00;;;5.03;;
10226;SDS011;15634;48.766;2.272;2024-02-16T11:12:13;6.72;;;4.95;;
10226;SDS011;15634;48.766;2.272;2024-02-16T11:14:43;5.82;;;4.70;;
10226;SDS011;15634;48.766;2.272;2024-02-16T11:17:20;10.63;;;4.90;;
10226;SDS011;15634;48.766;2.272;2024-02-16T11:19:47;7.43;;;4.75;;
10226;SDS011;15634;48.766;2.272;2024-02-16T11:22:16;7.03;;;3.97;;
10226;SDS011;15634;48.766;2.272;2024-02-16T11:24:46;6.13;;;4.30;;
10226;SDS011;15634;48.766;2.272;2024-02-16T11:27:12;6.00;;;4.35;;
10226;SDS011;15634;48.766;2.272;2024-02-16T11:29:40;6.95;;;4.65;;
10226;SDS011;15634;48.766;2.272;2024-02-16T11:32:07;6.18;;;4.90;;
10226;SDS011;15634;48.766;2.272;2024-02-16T11:34:33;7.78;;;5.50;;
10226;SDS011;15634;48.766;2.272;2024-02-16T11:37:01;11.10;;;7.00;;
10226;SDS011;15634;48.766;2.272;2024-02-16T11:39:27;9.15;;;6.15;;
10226;SDS011;15634;48.766;2.272;2024-02-16T11:44:31;8.95;;;6.32;;
10226;SDS011;15634;48.766;2.272;2024-02-16T11:46:58;9.30;;;5.93;;
10226;SDS011;15634;48.766;2.272;2024-02-16T11:49:24;10.77;;;6.65;;
10226;SDS011;15634;48.766;2.272;2024-02-16T11:51:50;8.70;;;6.38;;
10226;SDS011;15634;48.766;2.272;2024-02-16T11:54:16;6.93;;;5.47;;
10226;SDS011;15634;48.766;2.272;2024-02-16T11:56:43;7.03;;;4.75;;
10226;SDS011;15634;48.766;2.272;2024-02-16T11:59:11;6.78;;;4.63;;
10226;SDS011;15634;48.766;2.272;2024-02-16T12:01:57;7.95;;;4.88;;
10226;SDS011;15634;48.766;2.272;2024-02-16T12:04:23;5.82;;;4.55;;
10226;SDS011;15634;48.766;2.272;2024-02-16T12:06:50;9.85;;;5.10;;
10226;SDS011;15634;48.766;2.272;2024-02-16T12:09:17;7.38;;;5.18;;
10226;SDS011;15634;48.766;2.272;2024-02-16T12:11:44;6.53;;;5.40;;
10226;SDS011;15634;48.766;2.272;2024-02-16T12:14:10;8.00;;;5.20;;
10226;SDS011;15634;48.766;2.272;2024-02-16T12:16:37;8.00;;;5.40;;
10226;SDS011;15634;48.766;2.272;2024-02-16T12:19:06;7.13;;;6.00;;
10226;SDS011;15634;48.766;2.272;2024-02-16T12:21:32;7.55;;;5.55;;
10226;SDS011;15634;48.766;2.272;2024-02-16T12:23:58;9.00;;;5.95;;
10226;SDS011;15634;48.766;2.272;2024-02-16T12:26:24;8.98;;;5.15;;
10226;SDS011;15634;48.766;2.272;2024-02-16T12:28:50;7.70;;;5.72;;
10226;SDS011;15634;48.766;2.272;2024-02-16T12:31:20;6.60;;;5.57;;
10226;SDS011;15634;48.766;2.272;2024-02-16T12:33:46;6.47;;;4.97;;
10226;SDS011;15634;48.766;2.272;2024-02-16T12:36:12;6.18;;;5.47;;
10226;SDS011;15634;48.766;2.272;2024-02-16T12:38:38;6.03;;;4.97;;
10226;SDS011;15634;48.766;2.272;2024-02-16T12:41:04;7.35;;;5.35;;
10226;SDS011;15634;48.766;2.272;2024-02-16T12:43:31;6.25;;;4.70;;
10226;SDS011;15634;48.766;2.272;2024-02-16T12:45:57;7.70;;;5.05;;
10226;SDS011;15634;48.766;2.272;2024-02-16T12:48:26;9.40;;;5.85;;
10226;SDS011;15634;48.766;2.272;2024-02-16T12:50:52;6.93;;;5.00;;
10226;SDS011;15634;48.766;2.272;2024-02-16T12:53:18;7.25;;;4.95;;
10226;SDS011;15634;48.766;2.272;2024-02-16T12:55:45;7.05;;;5.05;;
10226;SDS011;15634;48.766;2.272;2024-02-16T12:58:12;10.90;;;5.75;;
10226;SDS011;15634;48.766;2.272;2024-02-16T13:00:38;9.90;;;5.53;;
10226;SDS011;15634;48.766;2.272;2024-02-16T13:03:04;8.63;;;5.82;;
10226;SDS011;15634;48.766;2.272;2024-02-16T13:05:30;10.48;;;6.20;;
10226;SDS011;15634;48.766;2.272;2024-02-16T13:07:57;7.80;;;5.72;;
10226;SDS011;15634;48.766;2.272;2024-02-16T13:10:23;13.43;;;5.85;;
10226;SDS011;15634;48.766;2.272;2024-02-16T13:12:49;8.82;;;5.57;;
10226;SDS011;15634;48.766;2.272;2024-02-16T13:15:15;10.93;;;6.43;;
10226;SDS011;15634;48.766;2.272;2024-02-16T13:17:41;10.10;;;6.25;;
10226;SDS011;15634;48.766;2.272;2024-02-16T13:20:08;8.65;;;5.47;;
10226;SDS011;15634;48.766;2.272;2024-02-16T13:22:35;9.98;;;5.55;;
10226;SDS011;15634;48.766;2.272;2024-02-16T13:25:02;9.32;;;5.70;;
10226;SDS011;15634;48.766;2.272;2024-02-16T13:27:28;8.55;;;5.60;;
10226;SDS011;15634;48.766;2.272;2024-02-16T13:29:54;9.63;;;5.30;;
10226;SDS011;15634;48.766;2.272;2024-02-16T13:32:20;9.05;;;6.05;;
10226;SDS011;15634;48.766;2.272;2024-02-16T13:34:46;10.88;;;5.32;;
10226;SDS011;15634;48.766;2.272;2024-02-16T13:37:12;11.07;;;5.30;;
10226;SDS011;15634;48.766;2.272;2024-02-16T13:39:38;14.57;;;6.70;;
10226;SDS011;15634;48.766;2.272;2024-02-16T13:42:04;12.10;;;6.00;;
10226;SDS011;15634;48.766;2.272;2024-02-16T13:44:31;11.55;;;6.15;;
10226;SDS011;15634;48.766;2.272;2024-02-16T13:46:57;10.40;;;5.82;;
10226;SDS011;15634;48.766;2.272;2024-02-16T13:49:22;9.48;;;5.68;;
10226;SDS011;15634;48.766;2.272;2024-02-16T13:51:48;12.65;;;6.15;;
10226;SDS011;15634;48.766;2.272;2024-02-16T13:54:14;9.93;;;5.90;;
10226;SDS011;15634;48.766;2.272;2024-02-16T13:56:40;11.02;;;5.50;;
10226;SDS011;15634;48.766;2.272;2024-02-16T13:59:06;12.55;;;6.00;;
10226;SDS011;15634;48.766;2.272;2024-02-16T14:01:33;10.13;;;5.90;;
10226;SDS011;15634;48.766;2.272;2024-02-16T14:03:59;14.77;;;5.93;;
10226;SDS011;15634;48.766;2.272;2024-02-16T14:06:26;9.68;;;5.97;;
10226;SDS011;15634;48.766;2.272;2024-02-16T14:08:52;9.43;;;6.20;;
10226;SDS011;15634;48.766;2.272;2024-02-16T14:11:18;10.55;;;6.07;;
10226;SDS011;15634;48.766;2.272;2024-02-16T14:13:44;9.18;;;6.43;;
10226;SDS011;15634;48.766;2.272;2024-02-16T14:16:09;12.93;;;6.50;;
10226;SDS011;15634;48.766;2.272;2024-02-16T14:18:36;11.93;;;7.13;;
10226;SDS011;15634;48.766;2.272;2024-02-16T14:21:02;10.25;;;6.00;;
10226;SDS011;15634;48.766;2.272;2024-02-16T14:23:31;11.23;;;6.60;;
10226;SDS011;15634;48.766;2.272;2024-02-16T14:25:58;12.18;;;6.35;;
10226;SDS011;15634;48.766;2.272;2024-02-16T14:28:24;11.70;;;6.05;;
10226;SDS011;15634;48.766;2.272;2024-02-16T14:30:49;13.38;;;7.13;;
10226;SDS011;15634;48.766;2.272;2024-02-16T14:33:16;10.45;;;5.85;;
10226;SDS011;15634;48.766;2.272;2024-02-16T14:35:42;10.20;;;5.40;;
10226;SDS011;15634;48.766;2.272;2024-02-16T14:38:10;8.25;;;5.07;;
10226;SDS011;15634;48.766;2.272;2024-02-16T14:40:37;10.85;;;5.15;;
10226;SDS011;15634;48.766;2.272;2024-02-16T14:43:03;10.48;;;4.63;;
10226;SDS011;15634;48.766;2.272;2024-02-16T14:45:29;11.23;;;5.00;;
10226;SDS011;15634;48.766;2.272;2024-02-16T14:47:55;10.93;;;4.82;;